createdAt,value
2018-08-20T00:01:55.797Z,19.60
2018-08-20T00:04:24.317Z,19.57
2018-08-20T00:06:56.575Z,19.74
2018-08-20T00:09:36.913Z,19.63
2018-08-20T00:12:06.959Z,19.51
2018-08-20T00:14:35.512Z,19.67
2018-08-20T00:17:04.237Z,19.67
2018-08-20T00:19:32.905Z,19.70
2018-08-20T00:22:02.355Z,19.64
2018-08-20T00:24:30.870Z,19.69
2018-08-20T00:27:01.179Z,19.63
2018-08-20T00:29:29.824Z,19.58
2018-08-20T00:31:58.326Z,19.63
2018-08-20T00:34:26.809Z,19.77
2018-08-20T00:36:55.445Z,19.70
2018-08-20T00:39:23.957Z,19.75
2018-08-20T00:41:52.453Z,19.94
2018-08-20T00:44:21.049Z,19.95
2018-08-20T00:46:49.620Z,19.86
2018-08-20T00:49:18.219Z,19.88
2018-08-20T00:51:46.867Z,19.88
2018-08-20T00:54:15.373Z,19.99
2018-08-20T00:56:44.036Z,19.84
2018-08-20T00:59:12.687Z,19.72
2018-08-20T01:01:41.185Z,19.91
2018-08-20T01:04:09.784Z,19.81
2018-08-20T01:06:38.256Z,19.89
2018-08-20T01:09:08.242Z,19.98
2018-08-20T01:11:36.984Z,20.04
2018-08-20T01:14:05.803Z,19.98
2018-08-20T01:16:35.525Z,19.82
2018-08-20T01:19:04.134Z,19.81
2018-08-20T01:21:32.632Z,19.85
2018-08-20T01:24:01.179Z,19.75
2018-08-20T01:26:29.665Z,19.78
2018-08-20T01:28:58.164Z,19.77
2018-08-20T01:31:26.744Z,19.68
2018-08-20T01:33:55.249Z,19.74
2018-08-20T01:36:23.841Z,19.91
2018-08-20T01:38:52.385Z,19.85
2018-08-20T01:41:20.885Z,19.78
2018-08-20T01:43:49.456Z,19.79
2018-08-20T01:46:17.964Z,19.74
2018-08-20T01:48:46.497Z,19.69
2018-08-20T01:51:15.045Z,19.65
2018-08-20T01:53:43.538Z,19.82
2018-08-20T01:56:12.146Z,19.72
2018-08-20T01:58:40.710Z,19.43
2018-08-20T02:01:09.390Z,19.46
2018-08-20T02:03:37.911Z,19.56
2018-08-20T02:06:06.491Z,19.41
2018-08-20T02:08:35.492Z,19.39
2018-08-20T02:11:04.111Z,19.41
2018-08-20T02:13:32.593Z,19.37
2018-08-20T02:16:01.248Z,19.51
2018-08-20T02:18:29.747Z,19.34
2018-08-20T02:20:58.266Z,19.31
2018-08-20T02:23:26.751Z,19.28
2018-08-20T02:25:55.396Z,19.25
2018-08-20T02:28:24.436Z,19.39
2018-08-20T02:30:52.922Z,19.33
2018-08-20T02:33:21.491Z,19.32
2018-08-20T02:35:50.167Z,19.43
2018-08-20T02:38:18.680Z,19.38
2018-08-20T02:40:47.200Z,19.46
2018-08-20T02:43:15.769Z,19.52
2018-08-20T02:45:44.255Z,19.52
2018-08-20T02:48:12.773Z,19.45
2018-08-20T02:50:41.307Z,19.27
2018-08-20T02:53:09.849Z,19.40
2018-08-20T02:55:38.350Z,19.41
2018-08-20T02:58:06.898Z,19.23
2018-08-20T03:00:35.483Z,19.33
2018-08-20T03:03:04.909Z,19.43
2018-08-20T03:05:34.404Z,19.54
2018-08-20T03:08:02.995Z,19.41
2018-08-20T03:10:31.637Z,19.27
2018-08-20T03:13:00.372Z,19.47
2018-08-20T03:15:28.879Z,19.44
2018-08-20T03:17:57.393Z,19.50
2018-08-20T03:20:26.022Z,19.54
2018-08-20T03:22:54.684Z,19.28
2018-08-20T03:25:23.256Z,19.39
2018-08-20T03:27:51.827Z,19.23
2018-08-20T03:30:20.329Z,19.37
2018-08-20T03:32:48.891Z,19.35
2018-08-20T03:35:17.448Z,19.37
2018-08-20T03:37:46.168Z,19.34
2018-08-20T03:40:14.623Z,19.47
2018-08-20T03:42:43.323Z,19.43
2018-08-20T03:45:12.059Z,19.43
2018-08-20T03:47:40.616Z,19.29
2018-08-20T03:50:11.720Z,19.23
2018-08-20T03:52:40.331Z,19.25
2018-08-20T03:55:08.937Z,19.32
2018-08-20T03:57:37.963Z,19.40
2018-08-20T04:00:07.445Z,19.44
2018-08-20T04:02:36.019Z,19.30
2018-08-20T04:05:04.996Z,19.30
2018-08-20T04:07:33.542Z,19.43
2018-08-20T04:10:02.061Z,19.46
2018-08-20T04:12:30.632Z,19.51
2018-08-20T04:14:59.210Z,19.49
2018-08-20T04:17:27.702Z,19.41
2018-08-20T04:19:56.342Z,19.44
2018-08-20T04:22:24.890Z,19.28
2018-08-20T04:24:53.417Z,19.44
2018-08-20T04:27:21.909Z,19.51
2018-08-20T04:29:50.584Z,19.45
2018-08-20T04:32:19.656Z,19.47
2018-08-20T04:34:48.152Z,19.51
2018-08-20T04:37:16.679Z,19.47
2018-08-20T04:39:45.198Z,19.54
2018-08-20T04:42:13.824Z,19.53
2018-08-20T04:44:42.346Z,19.51
2018-08-20T04:47:10.853Z,19.50
2018-08-20T04:49:39.397Z,19.54
2018-08-20T04:52:07.937Z,19.44
2018-08-20T04:54:36.449Z,19.42
2018-08-20T04:57:05.022Z,19.31
2018-08-20T04:59:33.658Z,19.35
2018-08-20T05:02:03.204Z,19.34
2018-08-20T05:04:31.700Z,19.54
2018-08-20T05:07:00.214Z,19.38
2018-08-20T05:09:28.898Z,19.39
2018-08-20T05:11:57.397Z,19.56
2018-08-20T05:14:25.907Z,19.48
2018-08-20T05:16:54.506Z,19.61
2018-08-20T05:19:23.072Z,19.53
2018-08-20T05:21:51.814Z,19.44
2018-08-20T05:24:20.430Z,19.62
2018-08-20T05:26:49.399Z,19.48
2018-08-20T05:29:17.917Z,19.42
2018-08-20T05:31:46.462Z,19.48
2018-08-20T05:34:14.990Z,19.54
2018-08-20T05:36:43.548Z,19.53
2018-08-20T05:39:12.630Z,19.64
2018-08-20T05:41:41.239Z,19.51
2018-08-20T05:44:10.220Z,19.65
2018-08-20T05:46:38.794Z,19.56
2018-08-20T05:49:10.321Z,19.58
2018-08-20T05:51:38.945Z,19.57
2018-08-20T05:54:07.464Z,19.67
2018-08-20T05:56:36.095Z,19.60
2018-08-20T05:59:04.752Z,19.72
2018-08-20T06:01:33.444Z,19.76
2018-08-20T06:04:01.994Z,19.65
2018-08-20T06:06:30.565Z,19.77
2018-08-20T06:08:59.150Z,19.65
2018-08-20T06:11:27.736Z,19.76
2018-08-20T06:13:57.437Z,19.74
2018-08-20T06:16:26.379Z,19.92
2018-08-20T06:18:54.901Z,19.73
2018-08-20T06:21:23.677Z,19.90
2018-08-20T06:23:52.213Z,20.14
2018-08-20T06:26:21.351Z,19.94
2018-08-20T06:28:50.057Z,20.14
2018-08-20T06:31:19.467Z,20.16
2018-08-20T06:33:48.390Z,20.15
2018-08-20T06:38:44.408Z,20.36
2018-08-20T06:41:12.988Z,20.56
2018-08-20T06:43:41.555Z,20.46
2018-08-20T06:46:10.152Z,20.54
2018-08-20T06:48:38.704Z,20.10
2018-08-20T06:51:07.219Z,20.27
2018-08-20T06:53:35.777Z,20.40
2018-08-20T06:56:04.437Z,20.75
2018-08-20T06:58:33.042Z,20.82
2018-08-20T07:01:01.725Z,20.80
2018-08-20T07:03:30.233Z,20.82
2018-08-20T07:05:58.754Z,20.88
2018-08-20T07:08:27.375Z,20.71
2018-08-20T07:10:55.893Z,20.83
2018-08-20T07:13:29.970Z,21.02
2018-08-20T07:15:58.500Z,20.87
2018-08-20T07:18:27.036Z,20.91
2018-08-20T07:20:55.835Z,21.16
2018-08-20T07:23:24.475Z,21.21
2018-08-20T07:25:53.226Z,21.29
2018-08-20T07:28:22.362Z,21.02
2018-08-20T07:30:50.961Z,21.16
2018-08-20T07:33:19.533Z,21.13
2018-08-20T07:35:48.104Z,21.14
2018-08-20T07:38:16.702Z,21.13
2018-08-20T07:40:45.305Z,21.15
2018-08-20T07:43:13.836Z,20.69
2018-08-20T07:45:42.514Z,20.86
2018-08-20T07:48:11.617Z,21.18
2018-08-20T07:50:40.158Z,21.32
2018-08-20T07:53:08.865Z,21.46
2018-08-20T07:55:37.514Z,21.38
2018-08-20T07:58:06.966Z,21.19
2018-08-20T08:00:35.556Z,21.14
2018-08-20T08:03:04.203Z,21.30
2018-08-20T08:05:32.770Z,21.04
2018-08-20T08:08:01.482Z,21.38
2018-08-20T08:10:30.141Z,21.37
2018-08-20T08:12:58.836Z,21.47
2018-08-20T08:15:27.435Z,21.57
2018-08-20T08:17:55.963Z,21.17
2018-08-20T08:20:24.603Z,21.36
2018-08-20T08:22:53.097Z,21.72
2018-08-20T08:25:21.629Z,21.60
2018-08-20T08:27:50.229Z,21.84
2018-08-20T08:30:19.791Z,21.50
2018-08-20T08:32:48.444Z,21.62
2018-08-20T08:35:17.136Z,21.54
2018-08-20T08:37:45.738Z,21.63
2018-08-20T08:40:16.174Z,21.51
2018-08-20T08:42:45.297Z,21.59
2018-08-20T08:45:16.152Z,21.45
2018-08-20T08:47:45.397Z,21.30
2018-08-20T08:50:15.065Z,21.09
2018-08-20T08:52:43.668Z,20.68
2018-08-20T08:55:12.277Z,20.88
2018-08-20T08:57:40.856Z,21.03
2018-08-20T09:00:18.743Z,21.03
2018-08-20T09:02:47.672Z,20.89
2018-08-20T09:05:16.492Z,20.39
2018-08-20T09:07:45.093Z,20.06
2018-08-20T09:10:13.923Z,20.18
2018-08-20T09:12:42.643Z,20.42
2018-08-20T09:15:14.138Z,20.67
2018-08-20T09:17:42.850Z,20.82
2018-08-20T09:20:13.557Z,21.20
2018-08-20T09:22:42.097Z,21.34
2018-08-20T09:25:11.877Z,21.37
2018-08-20T09:27:41.523Z,21.28
2018-08-20T09:30:15.705Z,21.66
2018-08-20T09:32:45.093Z,22.09
2018-08-20T09:35:13.686Z,21.97
2018-08-20T09:37:43.448Z,21.95
2018-08-20T09:40:12.537Z,21.86
2018-08-20T09:42:41.844Z,22.34
2018-08-20T09:45:10.637Z,22.56
2018-08-20T09:47:40.188Z,22.61
2018-08-20T09:50:10.647Z,22.68
2018-08-20T09:52:39.282Z,22.88
2018-08-20T09:55:08.610Z,22.96
2018-08-20T09:57:37.154Z,22.29
2018-08-20T10:00:11.298Z,22.30
2018-08-20T10:02:39.910Z,22.64
2018-08-20T10:05:08.408Z,22.90
2018-08-20T10:07:37.312Z,23.05
2018-08-20T10:10:06.238Z,23.30
2018-08-20T10:12:34.745Z,23.94
2018-08-20T10:15:03.582Z,24.32
2018-08-20T10:17:32.096Z,24.67
2018-08-20T10:20:00.594Z,24.44
2018-08-20T10:22:29.121Z,24.17
2018-08-20T10:24:57.916Z,23.91
2018-08-20T10:27:26.419Z,23.36
2018-08-20T10:29:55.032Z,23.95
2018-08-20T10:32:23.673Z,23.30
2018-08-20T10:34:52.196Z,23.45
2018-08-20T10:37:20.748Z,23.33
2018-08-20T10:39:49.392Z,23.11
2018-08-20T10:42:18.383Z,23.31
2018-08-20T10:44:52.860Z,23.20
2018-08-20T10:47:22.025Z,23.46
2018-08-20T10:49:50.781Z,23.64
2018-08-20T10:52:19.986Z,23.88
2018-08-20T10:54:48.527Z,24.02
2018-08-20T10:57:17.082Z,24.05
2018-08-20T10:59:45.577Z,23.49
2018-08-20T11:02:14.158Z,23.42
2018-08-20T11:04:42.652Z,23.07
2018-08-20T11:07:11.193Z,23.08
2018-08-20T11:09:39.719Z,22.97
2018-08-20T11:12:08.326Z,23.21
2018-08-20T11:14:36.905Z,23.56
2018-08-20T11:17:05.451Z,23.41
2018-08-20T11:19:33.983Z,23.56
2018-08-20T11:22:02.464Z,23.56
2018-08-20T11:24:30.992Z,23.56
2018-08-20T11:26:59.545Z,23.82
2018-08-20T11:29:28.101Z,23.95
2018-08-20T11:31:56.731Z,24.12
2018-08-20T11:34:25.331Z,24.29
2018-08-20T11:36:53.824Z,24.43
2018-08-20T11:39:22.444Z,24.45
2018-08-20T11:41:51.133Z,24.22
2018-08-20T11:44:20.357Z,24.22
2018-08-20T11:46:49.210Z,24.05
2018-08-20T11:49:17.786Z,24.29
2018-08-20T11:51:46.234Z,24.44
2018-08-20T11:54:14.811Z,24.64
2018-08-20T11:56:43.393Z,24.99
2018-08-20T11:59:11.918Z,24.54
2018-08-20T12:01:40.496Z,24.95
2018-08-20T12:04:09.125Z,24.90
2018-08-20T12:06:37.680Z,25.22
2018-08-20T12:09:07.112Z,25.77
2018-08-20T12:11:35.703Z,25.90
2018-08-20T12:14:04.268Z,25.44
2018-08-20T12:16:33.032Z,25.29
2018-08-20T12:19:01.582Z,25.23
2018-08-20T12:21:30.411Z,24.90
2018-08-20T12:23:59.006Z,24.73
2018-08-20T12:26:27.487Z,25.04
2018-08-20T12:28:56.417Z,25.22
2018-08-20T12:31:25.001Z,25.46
2018-08-20T12:33:53.730Z,24.16
2018-08-20T12:36:22.417Z,23.75
2018-08-20T12:38:50.963Z,23.68
2018-08-20T12:41:19.470Z,24.41
2018-08-20T12:43:47.966Z,24.26
2018-08-20T12:46:18.992Z,24.57
2018-08-20T12:48:49.313Z,24.43
2018-08-20T12:51:18.109Z,24.26
2018-08-20T12:53:46.617Z,23.76
2018-08-20T12:56:15.188Z,24.16
2018-08-20T12:58:50.021Z,24.25
2018-08-20T13:01:19.063Z,23.90
2018-08-20T13:03:48.466Z,23.86
2018-08-20T13:06:17.281Z,23.57
2018-08-20T13:08:47.151Z,23.83
2018-08-20T13:11:16.019Z,23.87
2018-08-20T13:13:44.916Z,23.88
2018-08-20T13:16:13.939Z,23.54
2018-08-20T13:18:42.387Z,23.68
2018-08-20T13:21:10.983Z,23.71
2018-08-20T13:23:39.576Z,23.77
2018-08-20T13:26:08.142Z,23.45
2018-08-20T13:28:36.875Z,23.23
2018-08-20T13:31:05.528Z,23.73
2018-08-20T13:33:34.063Z,23.80
2018-08-20T13:36:02.653Z,23.78
2018-08-20T13:38:31.296Z,23.69
2018-08-20T13:40:59.912Z,23.37
2018-08-20T13:43:28.421Z,23.28
2018-08-20T13:45:57.017Z,23.25
2018-08-20T13:48:25.658Z,23.47
2018-08-20T13:50:55.109Z,22.98
2018-08-20T13:53:23.635Z,23.18
2018-08-20T13:55:52.176Z,22.55
2018-08-20T13:58:20.683Z,22.33
2018-08-20T14:00:49.220Z,22.66
2018-08-20T14:03:17.881Z,22.43
2018-08-20T14:05:46.647Z,22.61
2018-08-20T14:08:15.158Z,22.41
2018-08-20T14:10:43.780Z,22.67
2018-08-20T14:13:12.339Z,22.22
2018-08-20T14:15:40.890Z,22.40
2018-08-20T14:18:09.521Z,22.79
2018-08-20T14:20:38.088Z,22.87
2018-08-20T14:23:06.880Z,22.87
2018-08-20T14:25:35.404Z,23.02
2018-08-20T14:28:03.993Z,22.80
2018-08-20T14:30:32.812Z,23.24
2018-08-20T14:33:01.321Z,23.20
2018-08-20T14:35:29.816Z,23.19
2018-08-20T14:37:58.530Z,23.36
2018-08-20T14:40:27.037Z,23.40
2018-08-20T14:42:55.570Z,23.76
2018-08-20T14:45:24.155Z,23.62
2018-08-20T14:47:52.749Z,23.91
2018-08-20T14:50:21.286Z,23.84
2018-08-20T14:52:50.712Z,23.46
2018-08-20T14:55:19.455Z,23.39
2018-08-20T14:57:48.041Z,23.41
2018-08-20T15:00:18.226Z,22.95
2018-08-20T15:02:46.789Z,23.24
2018-08-20T15:05:15.347Z,23.08
2018-08-20T15:07:43.934Z,22.99
2018-08-20T15:10:12.461Z,23.05
2018-08-20T15:12:41.026Z,22.54
2018-08-20T15:15:09.675Z,22.44
2018-08-20T15:17:38.190Z,22.92
2018-08-20T15:20:07.743Z,22.79
2018-08-20T15:22:36.606Z,22.53
2018-08-20T15:25:05.915Z,22.44
2018-08-20T15:27:34.425Z,22.48
2018-08-20T15:30:03.028Z,22.23
2018-08-20T15:32:31.594Z,22.36
2018-08-20T15:35:00.461Z,22.11
2018-08-20T15:37:29.085Z,21.81
2018-08-20T15:39:57.725Z,21.95
2018-08-20T15:42:26.425Z,21.98
2018-08-20T15:44:54.969Z,21.73
2018-08-20T15:47:23.547Z,21.93
2018-08-20T15:49:52.150Z,22.02
2018-08-20T15:52:20.793Z,21.75
2018-08-20T15:54:49.328Z,21.89
2018-08-20T15:57:17.898Z,22.20
2018-08-20T15:59:46.493Z,22.08
2018-08-20T16:02:15.059Z,22.18
2018-08-20T16:04:43.545Z,22.30
2018-08-20T16:07:12.232Z,22.27
2018-08-20T16:09:40.799Z,22.40
2018-08-20T16:12:09.292Z,22.60
2018-08-20T16:14:38.160Z,22.41
2018-08-20T16:17:06.700Z,22.42
2018-08-20T16:19:35.210Z,22.39
2018-08-20T16:22:03.784Z,22.64
2018-08-20T16:24:32.373Z,22.78
2018-08-20T16:27:00.905Z,22.53
2018-08-20T16:29:29.659Z,22.79
2018-08-20T16:31:58.189Z,22.80
2018-08-20T16:34:26.759Z,22.78
2018-08-20T16:36:55.344Z,22.77
2018-08-20T16:39:24.025Z,22.68
2018-08-20T16:41:52.550Z,22.81
2018-08-20T16:44:21.138Z,22.75
2018-08-20T16:46:50.048Z,22.76
2018-08-20T16:49:18.563Z,22.59
2018-08-20T16:51:47.151Z,22.53
2018-08-20T16:54:16.123Z,22.31
2018-08-20T16:56:44.749Z,22.43
2018-08-20T16:59:13.369Z,22.32
2018-08-20T17:01:41.892Z,22.13
2018-08-20T17:04:30.658Z,22.56
2018-08-20T17:07:01.079Z,24.02
2018-08-20T17:09:30.127Z,25.00
2018-08-20T17:11:59.033Z,25.79
2018-08-20T17:14:27.536Z,25.99
2018-08-20T17:16:56.093Z,26.31
2018-08-20T17:19:24.633Z,26.97
2018-08-20T17:21:53.229Z,26.54
2018-08-20T17:24:29.944Z,26.52
2018-08-20T17:27:00.815Z,24.43
2018-08-20T17:29:29.444Z,23.99
2018-08-20T17:31:58.027Z,23.84
2018-08-20T17:34:26.675Z,23.55
2018-08-20T17:36:55.258Z,23.27
2018-08-20T17:39:24.144Z,22.99
2018-08-20T17:41:52.735Z,23.00
2018-08-20T17:44:23.017Z,22.96
2018-08-20T17:46:51.578Z,23.01
2018-08-20T17:49:25.310Z,22.33
2018-08-20T17:51:53.874Z,22.08
2018-08-20T17:54:22.450Z,22.49
2018-08-20T17:56:51.105Z,22.14
2018-08-20T17:59:20.734Z,22.12
2018-08-20T18:01:49.365Z,22.17
2018-08-20T18:04:19.408Z,22.27
2018-08-20T18:06:53.097Z,22.32
2018-08-20T18:09:21.754Z,22.25
2018-08-20T18:11:51.308Z,22.16
2018-08-20T18:14:22.414Z,21.92
2018-08-20T18:16:51.032Z,21.81
2018-08-20T18:19:19.646Z,22.08
2018-08-20T18:21:48.531Z,21.98
2018-08-20T18:24:22.333Z,22.11
2018-08-20T18:26:54.975Z,22.05
2018-08-20T18:29:23.541Z,22.00
2018-08-20T18:31:54.018Z,21.98
2018-08-20T18:34:22.745Z,21.82
2018-08-20T18:36:51.408Z,21.64
2018-08-20T18:39:20.128Z,21.70
2018-08-20T18:41:54.646Z,21.51
2018-08-20T18:44:23.664Z,21.36
2018-08-20T18:46:52.812Z,21.24
2018-08-20T18:49:22.373Z,21.36
2018-08-20T18:52:10.651Z,21.61
2018-08-20T18:54:56.309Z,21.58
2018-08-20T18:57:26.985Z,21.45
2018-08-20T18:59:57.977Z,21.51
2018-08-20T19:03:00.057Z,21.60
2018-08-20T19:05:29.152Z,21.37
2018-08-20T19:07:57.689Z,21.37
2018-08-20T19:10:29.728Z,21.25
2018-08-20T19:12:58.336Z,21.06
2018-08-20T19:15:40.498Z,21.23
2018-08-20T19:18:10.872Z,21.15
2018-08-20T19:20:40.224Z,21.12
2018-08-20T19:23:09.219Z,21.33
2018-08-20T19:25:38.166Z,21.30
2018-08-20T19:28:12.971Z,21.28
2018-08-20T19:30:41.732Z,21.26
2018-08-20T19:33:15.489Z,21.32
2018-08-20T19:35:44.042Z,21.14
2018-08-20T19:38:12.594Z,20.92
2018-08-20T19:40:41.168Z,21.08
2018-08-20T19:43:09.701Z,21.33
2018-08-20T19:45:43.714Z,21.28
2018-08-20T19:48:12.974Z,21.13
2018-08-20T19:50:42.409Z,21.03
2018-08-20T19:53:18.084Z,20.96
2018-08-20T19:55:46.713Z,20.99
2018-08-20T19:58:20.596Z,20.97
2018-08-20T20:01:19.768Z,21.04
2018-08-20T20:03:49.708Z,20.86
2018-08-20T20:06:18.439Z,20.89
2018-08-20T20:08:47.000Z,20.85
2018-08-20T20:11:22.125Z,20.85
2018-08-20T20:14:01.848Z,20.76
2018-08-20T20:16:37.799Z,20.66
2018-08-20T20:19:06.389Z,20.50
2018-08-20T20:21:35.121Z,20.27
2018-08-20T20:24:03.693Z,20.11
2018-08-20T20:26:32.331Z,20.02
2018-08-20T20:29:00.849Z,20.00
2018-08-20T20:31:29.423Z,19.87
2018-08-20T20:33:58.335Z,19.68
2018-08-20T20:36:32.157Z,19.62
2018-08-20T20:39:06.274Z,19.55
2018-08-20T20:41:34.827Z,19.51
2018-08-20T20:44:03.438Z,19.44
2018-08-20T20:46:32.304Z,19.48
2018-08-20T20:49:00.853Z,19.47
2018-08-20T20:51:29.423Z,19.42
2018-08-20T20:53:58.100Z,19.37
2018-08-20T20:56:26.603Z,19.37
2018-08-20T20:58:57.407Z,19.38
2018-08-20T21:01:25.962Z,19.43
2018-08-20T21:03:54.892Z,19.35
2018-08-20T21:06:24.829Z,19.36
2018-08-20T21:08:54.436Z,19.34
2018-08-20T21:11:23.215Z,19.32
2018-08-20T21:13:51.755Z,19.29
2018-08-20T21:16:24.841Z,19.23
2018-08-20T21:18:55.435Z,19.18
2018-08-20T21:21:24.879Z,19.14
2018-08-20T21:23:53.694Z,19.11
2018-08-20T21:26:22.516Z,19.03
2018-08-20T21:28:52.897Z,19.02
2018-08-20T21:31:28.705Z,19.00
2018-08-20T21:34:01.016Z,19.07
2018-08-20T21:36:29.557Z,19.01
2018-08-20T21:38:58.328Z,18.96
2018-08-20T21:41:28.586Z,18.89
2018-08-20T21:43:57.216Z,18.85
2018-08-20T21:46:25.820Z,18.87
2018-08-20T21:48:54.408Z,18.85
2018-08-20T21:51:34.038Z,18.90
2018-08-20T21:54:02.570Z,18.97
2018-08-20T21:57:03.701Z,18.97
2018-08-20T21:59:32.240Z,18.94
2018-08-20T22:02:00.824Z,18.91
2018-08-20T22:04:30.868Z,18.89
2018-08-20T22:07:00.657Z,18.84
2018-08-20T22:09:29.365Z,18.83
2018-08-20T22:11:58.648Z,18.81
2018-08-20T22:14:29.751Z,18.87
2018-08-20T22:17:00.841Z,18.93
2018-08-20T22:19:29.372Z,18.91
2018-08-20T22:21:58.976Z,18.96
2018-08-20T22:24:31.008Z,19.00
2018-08-20T22:27:01.609Z,18.82
2018-08-20T22:29:39.302Z,18.87
2018-08-20T22:32:08.997Z,18.92
2018-08-20T22:34:37.537Z,18.92
2018-08-20T22:37:07.086Z,18.92
2018-08-20T22:39:35.673Z,18.94
2018-08-20T22:42:04.415Z,18.89
2018-08-20T22:44:33.046Z,18.80
2018-08-20T22:47:01.563Z,18.83
2018-08-20T22:49:30.093Z,18.83
2018-08-20T22:51:58.656Z,18.84
2018-08-20T22:54:30.124Z,18.83
2018-08-20T22:56:59.254Z,18.87
2018-08-20T22:59:28.465Z,18.78
2018-08-20T23:02:00.545Z,18.74
2018-08-20T23:04:29.032Z,18.75
2018-08-20T23:06:59.832Z,18.73
2018-08-20T23:09:32.667Z,18.61
2018-08-20T23:12:01.480Z,18.47
2018-08-20T23:14:30.011Z,18.44
2018-08-20T23:16:58.573Z,18.26
2018-08-20T23:19:29.709Z,18.16
2018-08-20T23:21:58.226Z,18.09
2018-08-20T23:24:26.768Z,18.01
2018-08-20T23:26:55.270Z,17.93
2018-08-20T23:29:23.845Z,17.85
2018-08-20T23:31:52.374Z,17.76
2018-08-20T23:34:20.854Z,17.70
2018-08-20T23:36:49.353Z,17.71
2018-08-20T23:39:18.253Z,17.63
2018-08-20T23:41:46.761Z,17.58
2018-08-20T23:44:17.135Z,17.48
2018-08-20T23:46:51.019Z,17.41
2018-08-20T23:49:19.560Z,17.41
2018-08-20T23:51:48.148Z,17.33
2018-08-20T23:54:16.832Z,17.32
2018-08-20T23:56:45.433Z,17.22
2018-08-20T23:59:13.938Z,17.14
